Jeffris, Wisconsin
Current Conditions -  °F | °C
As of 2:35 PM on Friday 28 Nov 2014 (Local Time) from KRRL Reporting Station
Light Snow Light Snow  
Wind Chill:   Ceiling: 1300
Heat Index: 16°   Visibility: 1.7mi
Dew Point: 11°   Wind: 5mph
Humidity: 82%   Direction: 140°SE
Pressure: 29.92"   Gusts: NA
Location:  45.3595°N, 89.45°W
Report Text: KRRL 282035Z AUTO 14004KT 1 3/4SM -SN OVC013 M09/M11 A2992 RMK AO2 T10891114
Loading
Personal Weather Stations






























Interactive Weather Map New forecast layout! Learn more

10-Day Weather Forecast

Advertisements
Track Severe Weather on mobile